createdAt,value
2022-08-17T00:00:34.925Z,97356.31
2022-08-17T00:05:51.538Z,97347.06
2022-08-17T00:10:54.757Z,97356.38
2022-08-17T00:16:03.493Z,97368.31
2022-08-17T00:21:10.730Z,97370.59
2022-08-17T00:26:14.320Z,97376.22
2022-08-17T00:31:16.547Z,97372.38
2022-08-17T00:36:18.730Z,97373.41
2022-08-17T00:41:24.099Z,97371.59
2022-08-17T00:46:36.050Z,97370.69
2022-08-17T00:51:44.670Z,97374.13
2022-08-17T00:56:51.285Z,97376.00
2022-08-17T01:01:55.722Z,97373.94
2022-08-17T01:07:01.098Z,97370.97
2022-08-17T01:12:05.482Z,97376.41
2022-08-17T01:17:08.336Z,97375.94
2022-08-17T01:22:14.347Z,97375.13
2022-08-17T01:27:18.458Z,97374.94
2022-08-17T01:32:22.474Z,97368.50
2022-08-17T01:37:32.278Z,97370.28
2022-08-17T01:42:40.501Z,97372.00
2022-08-17T01:47:42.546Z,97381.44
2022-08-17T01:52:46.713Z,97375.53
2022-08-17T01:57:48.610Z,97376.03
2022-08-17T02:02:50.605Z,97377.22
2022-08-17T02:08:00.613Z,97380.91
2022-08-17T02:13:04.470Z,97372.84
2022-08-17T02:18:07.584Z,97372.19
2022-08-17T02:23:11.198Z,97366.00
2022-08-17T02:28:13.742Z,97371.72
2022-08-17T02:33:17.793Z,97361.75
2022-08-17T02:38:22.265Z,97357.50
2022-08-17T02:43:24.379Z,97354.38
2022-08-17T02:48:31.149Z,97351.63
2022-08-17T02:53:35.972Z,97355.84
2022-08-17T02:58:38.377Z,97346.66
2022-08-17T03:03:40.365Z,97348.75
2022-08-17T03:08:42.304Z,97342.34
2022-08-17T03:13:44.151Z,97347.25
2022-08-17T03:18:49.103Z,97339.84
2022-08-17T03:23:54.444Z,97339.09
2022-08-17T03:28:57.510Z,97337.72
2022-08-17T03:33:59.508Z,97338.19
2022-08-17T03:39:01.783Z,97335.59
2022-08-17T03:44:04.584Z,97341.28
2022-08-17T03:49:27.927Z,97342.28
2022-08-17T03:54:48.198Z,97346.16
2022-08-17T03:59:50.133Z,97341.56
2022-08-17T04:04:52.649Z,97349.59
2022-08-17T04:09:54.845Z,97342.13
2022-08-17T04:14:57.031Z,97353.59
2022-08-17T04:19:58.933Z,97356.63
2022-08-17T04:25:15.578Z,97358.63
2022-08-17T04:30:17.529Z,97346.72
2022-08-17T04:35:25.548Z,97347.47
2022-08-17T04:40:46.994Z,97351.44
2022-08-17T04:45:58.045Z,97360.00
2022-08-17T04:51:00.219Z,97356.53
2022-08-17T04:56:03.568Z,97357.00
2022-08-17T05:01:06.060Z,97367.13
2022-08-17T05:06:08.943Z,97366.75
2022-08-17T05:11:10.975Z,97368.53
2022-08-17T05:16:13.046Z,97378.94
2022-08-17T05:21:15.729Z,97377.50
2022-08-17T05:26:26.736Z,97384.34
2022-08-17T05:31:29.719Z,97388.16
2022-08-17T05:36:41.962Z,97398.13
2022-08-17T05:41:48.214Z,97380.88
2022-08-17T05:46:54.255Z,97396.22
2022-08-17T05:51:59.120Z,97392.72
2022-08-17T05:57:21.007Z,97397.31
2022-08-17T06:02:56.731Z,97388.59
2022-08-17T06:08:17.809Z,97392.88
2022-08-17T06:13:31.845Z,97401.19
2022-08-17T06:18:43.497Z,97405.41
2022-08-17T06:23:48.218Z,97408.38
2022-08-17T06:29:27.573Z,97404.56
2022-08-17T06:34:29.973Z,97400.75
2022-08-17T06:39:37.999Z,97412.00
2022-08-17T06:44:52.002Z,97410.44
2022-08-17T06:50:05.589Z,97417.34
2022-08-17T06:55:24.089Z,97424.41
2022-08-17T07:00:36.614Z,97415.72
2022-08-17T07:05:46.208Z,97417.19
2022-08-17T07:10:56.319Z,97419.03
2022-08-17T07:16:13.237Z,97421.53
2022-08-17T07:21:55.087Z,97417.28
2022-08-17T07:27:13.232Z,97417.06
2022-08-17T07:32:20.215Z,97424.50
2022-08-17T07:37:22.051Z,97408.50
2022-08-17T07:42:24.013Z,97413.91
2022-08-17T07:47:55.160Z,97415.78
2022-08-17T07:52:57.232Z,97423.50
2022-08-17T07:58:00.245Z,97426.91
2022-08-17T08:03:17.425Z,97427.09
2022-08-17T08:08:28.561Z,97432.09
2022-08-17T08:13:32.455Z,97435.91
2022-08-17T08:18:54.843Z,97429.34
2022-08-17T08:24:10.093Z,97440.88
2022-08-17T08:29:32.620Z,97433.34
2022-08-17T08:34:58.788Z,97435.13
2022-08-17T08:40:25.771Z,97443.34
2022-08-17T08:46:00.902Z,97434.25
2022-08-17T08:51:20.423Z,97449.53
2022-08-17T08:56:35.724Z,97437.97
2022-08-17T09:01:51.261Z,97439.38
2022-08-17T09:07:02.318Z,97432.28
2022-08-17T09:12:29.268Z,97440.31
2022-08-17T09:17:47.181Z,97438.75
2022-08-17T09:22:56.686Z,97441.94
2022-08-17T09:28:02.168Z,97433.19
2022-08-17T09:33:08.634Z,97431.09
2022-08-17T09:38:16.549Z,97432.69
2022-08-17T09:43:24.981Z,97432.66
2022-08-17T09:48:40.435Z,97421.59
2022-08-17T09:53:44.723Z,97415.06
2022-08-17T09:58:47.742Z,97416.22
2022-08-17T10:04:08.322Z,97415.00
2022-08-17T10:09:44.625Z,97409.50
2022-08-17T10:15:08.134Z,97408.13
2022-08-17T10:20:14.349Z,97401.47
2022-08-17T10:25:56.055Z,97399.28
2022-08-17T10:31:34.292Z,97395.41
2022-08-17T10:36:30.033Z,97401.47
2022-08-17T10:41:41.615Z,97391.41
2022-08-17T10:47:13.821Z,97389.00
2022-08-17T10:52:27.919Z,97391.53
2022-08-17T10:57:29.801Z,97388.28
2022-08-17T11:02:41.358Z,97397.88
2022-08-17T11:08:27.378Z,97382.31
2022-08-17T11:13:41.338Z,97392.44
2022-08-17T11:19:08.513Z,97394.09
2022-08-17T11:24:19.156Z,97385.81
2022-08-17T11:29:24.706Z,97393.66
2022-08-17T11:34:30.325Z,97382.44
2022-08-17T11:40:06.730Z,97365.00
2022-08-17T11:45:40.279Z,97371.34
2022-08-17T11:51:13.275Z,97367.28
2022-08-17T11:56:35.286Z,97362.47
2022-08-17T12:01:57.120Z,97364.91
2022-08-17T12:06:59.870Z,97359.00
2022-08-17T12:12:22.733Z,97364.13
2022-08-17T12:17:41.272Z,97366.66
2022-08-17T12:23:01.234Z,97364.78
2022-08-17T12:28:06.183Z,97366.66
2022-08-17T12:33:25.211Z,97357.66
2022-08-17T12:38:36.128Z,97369.13
2022-08-17T12:43:38.101Z,97362.13
2022-08-17T12:48:39.925Z,97357.66
2022-08-17T12:54:02.299Z,97370.66
2022-08-17T12:59:04.197Z,97372.47
2022-08-17T13:04:06.797Z,97357.81
2022-08-17T13:09:12.510Z,97358.31
2022-08-17T13:14:18.347Z,97359.41
2022-08-17T13:19:39.723Z,97364.84
2022-08-17T13:25:00.835Z,97354.50
2022-08-17T13:30:11.709Z,97359.31
2022-08-17T13:35:38.897Z,97344.72
2022-08-17T13:40:53.462Z,97345.06
2022-08-17T13:46:08.886Z,97331.69
2022-08-17T13:51:19.841Z,97331.03
2022-08-17T13:56:38.250Z,97330.69
2022-08-17T14:01:53.628Z,97317.19
2022-08-17T14:07:04.194Z,97309.72
2022-08-17T14:12:11.372Z,97309.25
2022-08-17T14:17:13.597Z,97330.78
2022-08-17T14:22:27.664Z,97330.44
2022-08-17T14:27:52.496Z,97334.88
2022-08-17T14:32:56.502Z,97336.66
2022-08-17T14:37:58.776Z,97333.78
2022-08-17T14:43:01.390Z,97324.25
2022-08-17T14:48:09.514Z,97308.75
2022-08-17T14:53:14.318Z,97326.91
2022-08-17T14:58:16.139Z,97306.97
2022-08-17T15:03:18.733Z,97298.13
2022-08-17T15:08:20.593Z,97287.91
2022-08-17T15:13:25.494Z,97276.06
2022-08-17T15:18:27.331Z,97262.16
2022-08-17T15:23:29.178Z,97265.19
2022-08-17T15:28:31.162Z,97254.63
2022-08-17T15:33:33.133Z,97240.63
2022-08-17T15:38:39.360Z,97245.41
2022-08-17T15:43:42.789Z,97251.50
2022-08-17T15:48:47.855Z,97252.88
2022-08-17T15:53:56.128Z,97248.91
2022-08-17T15:58:59.886Z,97241.69
2022-08-17T16:04:06.655Z,97244.63
2022-08-17T16:09:09.349Z,97234.56
2022-08-17T16:14:11.155Z,97235.81
2022-08-17T16:19:16.314Z,97229.84
2022-08-17T16:24:18.129Z,97228.63
2022-08-17T16:29:19.922Z,97230.88
2022-08-17T16:34:22.257Z,97228.84
2022-08-17T16:39:26.762Z,97223.38
2022-08-17T16:44:30.678Z,97218.91
2022-08-17T16:49:36.832Z,97215.63
2022-08-17T16:54:43.830Z,97228.84
2022-08-17T16:59:50.303Z,97238.56
2022-08-17T17:05:02.624Z,97230.88
2022-08-17T17:10:18.188Z,97235.50
2022-08-17T17:15:22.329Z,97236.47
2022-08-17T17:20:36.567Z,97250.03
2022-08-17T17:25:57.323Z,97257.94
2022-08-17T17:31:23.823Z,97261.72
2022-08-17T17:36:35.527Z,97263.28
2022-08-17T17:41:47.207Z,97260.63
2022-08-17T17:46:54.519Z,97251.19
2022-08-17T17:52:10.947Z,97259.50
2022-08-17T17:57:56.511Z,97257.88
2022-08-17T18:03:33.728Z,97262.94
2022-08-17T18:08:45.766Z,97258.75
2022-08-17T18:14:15.579Z,97268.56
2022-08-17T18:19:20.731Z,97266.88
2022-08-17T18:24:32.188Z,97271.94
2022-08-17T18:29:40.007Z,97258.63
2022-08-17T18:34:48.229Z,97249.91
2022-08-17T18:39:50.637Z,97247.75
2022-08-17T18:44:55.262Z,97260.31
2022-08-17T18:50:27.518Z,97262.53
2022-08-17T18:55:30.343Z,97276.41
2022-08-17T19:00:41.489Z,97272.75
2022-08-17T19:05:45.394Z,97270.16
2022-08-17T19:10:50.406Z,97270.44
2022-08-17T19:16:14.149Z,97276.50
2022-08-17T19:21:30.517Z,97269.63
2022-08-17T19:26:55.381Z,97264.81
2022-08-17T19:31:59.063Z,97260.22
2022-08-17T19:37:23.621Z,97254.59
2022-08-17T19:42:53.062Z,97267.25
2022-08-17T19:48:25.612Z,97255.84
2022-08-17T19:54:04.848Z,97253.41
2022-08-17T19:59:07.293Z,97245.59
2022-08-17T20:04:32.976Z,97254.16
2022-08-17T20:09:39.003Z,97241.38
2022-08-17T20:14:55.363Z,97255.31
2022-08-17T20:20:20.226Z,97258.69
2022-08-17T20:25:39.322Z,97264.09
2022-08-17T20:30:42.974Z,97266.03
2022-08-17T20:36:03.312Z,97269.09
2022-08-17T20:41:10.245Z,97275.00
2022-08-17T20:46:41.115Z,97271.19
2022-08-17T20:52:07.802Z,97258.53
2022-08-17T20:57:30.415Z,97270.19
2022-08-17T21:02:33.095Z,97260.94
2022-08-17T21:07:43.131Z,97275.34
2022-08-17T21:12:48.670Z,97281.25
2022-08-17T21:18:23.363Z,97294.78
2022-08-17T21:23:50.916Z,97294.78
2022-08-17T21:29:31.286Z,97292.69
2022-08-17T21:34:39.795Z,97296.84
2022-08-17T21:40:11.325Z,97303.91
2022-08-17T21:45:41.114Z,97304.53
2022-08-17T21:50:57.915Z,97306.22
2022-08-17T21:55:59.986Z,97295.19
2022-08-17T22:01:26.061Z,97297.69
2022-08-17T22:06:27.953Z,97302.28
2022-08-17T22:11:29.854Z,97300.84
2022-08-17T22:16:31.966Z,97297.56
2022-08-17T22:21:33.877Z,97301.72
2022-08-17T22:27:00.780Z,97308.13
2022-08-17T22:32:02.691Z,97317.97
2022-08-17T22:37:28.914Z,97321.16
2022-08-17T22:42:31.300Z,97326.06
2022-08-17T22:47:41.077Z,97330.16
2022-08-17T22:53:15.563Z,97323.56
2022-08-17T22:58:43.320Z,97312.06
2022-08-17T23:04:04.703Z,97316.38
2022-08-17T23:09:07.237Z,97313.56
2022-08-17T23:14:12.199Z,97298.84
2022-08-17T23:19:17.622Z,97292.66
2022-08-17T23:24:25.829Z,97282.34
2022-08-17T23:29:29.370Z,97290.63
2022-08-17T23:34:31.586Z,97300.00
2022-08-17T23:39:33.978Z,97306.19
2022-08-17T23:44:38.101Z,97305.75
2022-08-17T23:49:41.394Z,97299.91
2022-08-17T23:54:46.648Z,97303.03
2022-08-17T23:59:49.090Z,97304.44
